CheckWX is a tool to help pilots better visualize weather data.  It is not intended as a substitute for an official pre-flight weather briefing.

18:47:25 UTC

KDVO METAR
Gnoss Field Airport
Novato, California, USA
Current

32 mins ago

KDVO 201815Z AUTO 00000KT 9SM CLR 26/07 A2996 RMK AO2
Observed
Sep-20 @ 18:15 UTC
Visibility
9 SM
Flight Rules
VFR
Cloud Levels
  • Clear skies
Temperature
26°C / 79°F
Dewpoint
C / 45°F
Humidity
30%
Altimeter
29.96" Hg
Pressure
1014.52 hPa
Previous

52 mins ago

KDVO 201755Z AUTO 00000KT 9SM CLR 24/10 A2997 RMK AO2
Observed
Sep-20 @ 17:55 UTC
Visibility
9 SM
Flight Rules
VFR
Cloud Levels
  • Clear skies
Temperature
24°C / 75°F
Dewpoint
10°C / 50°F
Humidity
41%
Altimeter
29.97" Hg
Pressure
1014.92 hPa
Previous

1 hour ago

KDVO 201735Z AUTO 00000KT 9SM CLR 23/11 A2997 RMK AO2
Observed
Sep-20 @ 17:35 UTC
Visibility
9 SM
Flight Rules
VFR
Cloud Levels
  • Clear skies
Temperature
23°C / 73°F
Dewpoint
11°C / 52°F
Humidity
47%
Altimeter
29.97" Hg
Pressure
1014.92 hPa